sensor_id;sensor_type;location;lat;lon;timestamp;P1;durP1;ratioP1;P2;durP2;ratioP2
23517;SDS011;11935;50.878;4.392;2023-03-23T00:04:50;4.80;;;2.72;;
23517;SDS011;11935;50.878;4.392;2023-03-23T00:07:18;5.18;;;2.50;;
23517;SDS011;11935;50.878;4.392;2023-03-23T00:09:49;6.82;;;4.00;;
23517;SDS011;11935;50.878;4.392;2023-03-23T00:12:23;3.33;;;2.50;;
23517;SDS011;11935;50.878;4.392;2023-03-23T00:14:59;4.68;;;2.88;;
23517;SDS011;11935;50.878;4.392;2023-03-23T00:17:25;5.60;;;3.30;;
23517;SDS011;11935;50.878;4.392;2023-03-23T00:19:52;5.57;;;2.35;;
23517;SDS011;11935;50.878;4.392;2023-03-23T00:22:18;5.28;;;2.42;;
23517;SDS011;11935;50.878;4.392;2023-03-23T00:24:45;4.47;;;2.35;;
23517;SDS011;11935;50.878;4.392;2023-03-23T00:27:12;3.78;;;2.38;;
23517;SDS011;11935;50.878;4.392;2023-03-23T00:29:39;3.17;;;1.75;;
23517;SDS011;11935;50.878;4.392;2023-03-23T00:32:06;2.80;;;1.92;;
23517;SDS011;11935;50.878;4.392;2023-03-23T00:34:37;1.85;;;1.00;;
23517;SDS011;11935;50.878;4.392;2023-03-23T00:37:05;3.80;;;2.33;;
23517;SDS011;11935;50.878;4.392;2023-03-23T00:39:32;4.45;;;2.88;;
23517;SDS011;11935;50.878;4.392;2023-03-23T00:41:58;2.70;;;2.08;;
23517;SDS011;11935;50.878;4.392;2023-03-23T00:44:28;2.55;;;1.85;;
23517;SDS011;11935;50.878;4.392;2023-03-23T00:46:55;5.90;;;2.80;;
23517;SDS011;11935;50.878;4.392;2023-03-23T00:49:22;3.03;;;1.90;;
23517;SDS011;11935;50.878;4.392;2023-03-23T00:51:52;4.47;;;1.80;;
23517;SDS011;11935;50.878;4.392;2023-03-23T00:54:19;5.05;;;2.13;;
23517;SDS011;11935;50.878;4.392;2023-03-23T00:56:45;2.58;;;2.00;;
23517;SDS011;11935;50.878;4.392;2023-03-23T00:59:12;3.50;;;1.92;;
23517;SDS011;11935;50.878;4.392;2023-03-23T01:01:38;4.43;;;2.55;;
23517;SDS011;11935;50.878;4.392;2023-03-23T01:04:04;3.42;;;1.70;;
23517;SDS011;11935;50.878;4.392;2023-03-23T01:06:31;3.65;;;2.15;;
23517;SDS011;11935;50.878;4.392;2023-03-23T01:09:00;3.22;;;1.60;;
23517;SDS011;11935;50.878;4.392;2023-03-23T01:11:28;4.75;;;2.47;;
23517;SDS011;11935;50.878;4.392;2023-03-23T01:13:54;5.05;;;3.08;;
23517;SDS011;11935;50.878;4.392;2023-03-23T01:16:21;4.35;;;2.83;;
23517;SDS011;11935;50.878;4.392;2023-03-23T01:18:47;2.80;;;0.88;;
23517;SDS011;11935;50.878;4.392;2023-03-23T01:21:14;3.35;;;2.47;;
23517;SDS011;11935;50.878;4.392;2023-03-23T01:23:41;2.83;;;1.55;;
23517;SDS011;11935;50.878;4.392;2023-03-23T01:26:08;5.15;;;2.20;;
23517;SDS011;11935;50.878;4.392;2023-03-23T01:28:35;7.00;;;3.00;;
23517;SDS011;11935;50.878;4.392;2023-03-23T01:31:05;4.45;;;2.47;;
23517;SDS011;11935;50.878;4.392;2023-03-23T01:33:32;5.15;;;2.33;;
23517;SDS011;11935;50.878;4.392;2023-03-23T01:36:02;4.53;;;2.17;;
23517;SDS011;11935;50.878;4.392;2023-03-23T01:38:28;3.17;;;1.63;;
23517;SDS011;11935;50.878;4.392;2023-03-23T01:40:56;3.65;;;2.35;;
23517;SDS011;11935;50.878;4.392;2023-03-23T01:43:22;4.43;;;2.10;;
23517;SDS011;11935;50.878;4.392;2023-03-23T01:45:48;3.15;;;2.33;;
23517;SDS011;11935;50.878;4.392;2023-03-23T01:48:16;4.00;;;2.53;;
23517;SDS011;11935;50.878;4.392;2023-03-23T01:53:15;5.10;;;2.70;;
23517;SDS011;11935;50.878;4.392;2023-03-23T01:55:42;4.28;;;2.58;;
23517;SDS011;11935;50.878;4.392;2023-03-23T01:58:09;4.47;;;2.73;;
23517;SDS011;11935;50.878;4.392;2023-03-23T02:00:37;5.13;;;2.07;;
23517;SDS011;11935;50.878;4.392;2023-03-23T02:03:05;5.07;;;2.17;;
23517;SDS011;11935;50.878;4.392;2023-03-23T02:05:35;6.50;;;2.88;;
23517;SDS011;11935;50.878;4.392;2023-03-23T02:10:31;5.75;;;2.38;;
23517;SDS011;11935;50.878;4.392;2023-03-23T02:12:58;5.95;;;2.58;;
23517;SDS011;11935;50.878;4.392;2023-03-23T02:15:28;4.03;;;2.00;;
23517;SDS011;11935;50.878;4.392;2023-03-23T02:18:01;3.92;;;2.05;;
23517;SDS011;11935;50.878;4.392;2023-03-23T02:20:38;2.08;;;1.45;;
23517;SDS011;11935;50.878;4.392;2023-03-23T02:23:13;3.80;;;1.58;;
23517;SDS011;11935;50.878;4.392;2023-03-23T02:25:47;3.60;;;1.48;;
23517;SDS011;11935;50.878;4.392;2023-03-23T02:38:42;4.53;;;1.58;;
23517;SDS011;11935;50.878;4.392;2023-03-23T02:41:09;2.72;;;1.42;;
23517;SDS011;11935;50.878;4.392;2023-03-23T02:43:38;4.50;;;1.75;;
23517;SDS011;11935;50.878;4.392;2023-03-23T02:46:06;5.20;;;1.30;;
23517;SDS011;11935;50.878;4.392;2023-03-23T02:48:33;3.47;;;1.33;;
23517;SDS011;11935;50.878;4.392;2023-03-23T02:51:00;3.58;;;1.10;;
23517;SDS011;11935;50.878;4.392;2023-03-23T02:53:28;1.27;;;0.85;;
23517;SDS011;11935;50.878;4.392;2023-03-23T02:55:55;2.17;;;1.08;;
23517;SDS011;11935;50.878;4.392;2023-03-23T02:58:21;3.72;;;1.00;;
23517;SDS011;11935;50.878;4.392;2023-03-23T03:00:50;1.80;;;1.20;;
23517;SDS011;11935;50.878;4.392;2023-03-23T03:03:18;2.33;;;1.00;;
23517;SDS011;11935;50.878;4.392;2023-03-23T03:10:49;2.42;;;1.02;;
23517;SDS011;11935;50.878;4.392;2023-03-23T03:15:54;1.67;;;0.98;;
23517;SDS011;11935;50.878;4.392;2023-03-23T03:18:24;1.70;;;0.90;;
23517;SDS011;11935;50.878;4.392;2023-03-23T03:20:58;2.78;;;0.90;;
23517;SDS011;11935;50.878;4.392;2023-03-23T03:23:25;6.00;;;1.05;;
23517;SDS011;11935;50.878;4.392;2023-03-23T03:25:53;3.90;;;0.90;;
23517;SDS011;11935;50.878;4.392;2023-03-23T03:28:22;3.15;;;1.05;;
23517;SDS011;11935;50.878;4.392;2023-03-23T03:30:58;1.73;;;0.80;;
23517;SDS011;11935;50.878;4.392;2023-03-23T03:33:27;3.40;;;0.90;;
23517;SDS011;11935;50.878;4.392;2023-03-23T03:35:56;1.50;;;0.77;;
23517;SDS011;11935;50.878;4.392;2023-03-23T03:38:22;7.53;;;0.88;;
23517;SDS011;11935;50.878;4.392;2023-03-23T03:40:49;3.28;;;1.00;;
23517;SDS011;11935;50.878;4.392;2023-03-23T03:43:15;3.63;;;0.95;;
23517;SDS011;11935;50.878;4.392;2023-03-23T03:45:41;5.00;;;1.10;;
23517;SDS011;11935;50.878;4.392;2023-03-23T03:48:07;4.70;;;0.98;;
23517;SDS011;11935;50.878;4.392;2023-03-23T03:50:34;2.10;;;0.82;;
23517;SDS011;11935;50.878;4.392;2023-03-23T03:53:00;4.00;;;0.90;;
23517;SDS011;11935;50.878;4.392;2023-03-23T03:55:26;4.38;;;0.80;;
23517;SDS011;11935;50.878;4.392;2023-03-23T03:57:53;3.53;;;0.90;;
23517;SDS011;11935;50.878;4.392;2023-03-23T04:00:20;4.22;;;0.70;;
23517;SDS011;11935;50.878;4.392;2023-03-23T04:02:48;4.18;;;0.85;;
23517;SDS011;11935;50.878;4.392;2023-03-23T04:05:19;9.35;;;1.65;;
23517;SDS011;11935;50.878;4.392;2023-03-23T04:07:45;2.67;;;0.60;;
23517;SDS011;11935;50.878;4.392;2023-03-23T04:10:14;2.30;;;0.98;;
23517;SDS011;11935;50.878;4.392;2023-03-23T04:12:40;4.45;;;1.00;;
23517;SDS011;11935;50.878;4.392;2023-03-23T04:15:07;3.30;;;0.98;;
23517;SDS011;11935;50.878;4.392;2023-03-23T04:17:33;2.22;;;0.68;;
23517;SDS011;11935;50.878;4.392;2023-03-23T04:20:00;8.25;;;1.20;;
23517;SDS011;11935;50.878;4.392;2023-03-23T04:22:32;7.68;;;1.15;;
23517;SDS011;11935;50.878;4.392;2023-03-23T04:25:01;8.38;;;1.58;;
23517;SDS011;11935;50.878;4.392;2023-03-23T04:27:31;8.90;;;1.60;;
23517;SDS011;11935;50.878;4.392;2023-03-23T04:29:57;3.08;;;1.17;;
23517;SDS011;11935;50.878;4.392;2023-03-23T04:32:27;3.35;;;1.00;;
23517;SDS011;11935;50.878;4.392;2023-03-23T04:34:56;7.68;;;1.10;;
23517;SDS011;11935;50.878;4.392;2023-03-23T04:37:26;6.78;;;1.25;;
23517;SDS011;11935;50.878;4.392;2023-03-23T04:39:56;4.43;;;1.30;;
23517;SDS011;11935;50.878;4.392;2023-03-23T04:42:30;5.97;;;1.05;;
23517;SDS011;11935;50.878;4.392;2023-03-23T04:44:57;7.72;;;1.20;;
23517;SDS011;11935;50.878;4.392;2023-03-23T04:47:24;3.33;;;1.45;;
23517;SDS011;11935;50.878;4.392;2023-03-23T04:49:50;6.50;;;1.30;;
23517;SDS011;11935;50.878;4.392;2023-03-23T04:52:16;5.07;;;1.08;;
23517;SDS011;11935;50.878;4.392;2023-03-23T04:54:43;7.97;;;1.15;;
23517;SDS011;11935;50.878;4.392;2023-03-23T04:57:10;4.28;;;1.17;;
23517;SDS011;11935;50.878;4.392;2023-03-23T04:59:37;6.32;;;1.13;;
23517;SDS011;11935;50.878;4.392;2023-03-23T05:02:03;4.32;;;1.30;;
23517;SDS011;11935;50.878;4.392;2023-03-23T05:04:29;4.47;;;1.10;;
23517;SDS011;11935;50.878;4.392;2023-03-23T05:06:56;5.40;;;1.00;;
23517;SDS011;11935;50.878;4.392;2023-03-23T05:09:22;4.00;;;1.13;;
23517;SDS011;11935;50.878;4.392;2023-03-23T05:11:48;8.77;;;1.15;;
23517;SDS011;11935;50.878;4.392;2023-03-23T05:14:14;2.85;;;0.70;;
23517;SDS011;11935;50.878;4.392;2023-03-23T05:16:41;5.13;;;0.95;;
23517;SDS011;11935;50.878;4.392;2023-03-23T05:19:07;1.95;;;0.85;;
23517;SDS011;11935;50.878;4.392;2023-03-23T05:21:33;2.67;;;0.82;;
23517;SDS011;11935;50.878;4.392;2023-03-23T05:23:59;3.13;;;0.95;;
23517;SDS011;11935;50.878;4.392;2023-03-23T05:26:26;4.35;;;1.10;;
23517;SDS011;11935;50.878;4.392;2023-03-23T05:28:55;1.17;;;0.50;;
23517;SDS011;11935;50.878;4.392;2023-03-23T05:31:22;6.35;;;1.10;;
23517;SDS011;11935;50.878;4.392;2023-03-23T05:33:50;5.15;;;1.10;;
23517;SDS011;11935;50.878;4.392;2023-03-23T05:36:16;10.25;;;1.48;;
23517;SDS011;11935;50.878;4.392;2023-03-23T05:38:42;7.28;;;1.38;;
23517;SDS011;11935;50.878;4.392;2023-03-23T05:41:10;4.38;;;1.35;;
23517;SDS011;11935;50.878;4.392;2023-03-23T05:43:37;6.25;;;1.58;;
23517;SDS011;11935;50.878;4.392;2023-03-23T05:46:03;6.00;;;1.42;;
23517;SDS011;11935;50.878;4.392;2023-03-23T05:48:32;5.28;;;1.20;;
23517;SDS011;11935;50.878;4.392;2023-03-23T05:50:58;4.97;;;1.02;;
23517;SDS011;11935;50.878;4.392;2023-03-23T05:53:24;1.73;;;0.90;;
23517;SDS011;11935;50.878;4.392;2023-03-23T05:55:51;5.43;;;1.30;;
23517;SDS011;11935;50.878;4.392;2023-03-23T05:58:17;7.15;;;2.03;;
23517;SDS011;11935;50.878;4.392;2023-03-23T06:00:44;5.43;;;1.50;;
23517;SDS011;11935;50.878;4.392;2023-03-23T06:03:11;5.13;;;0.90;;
23517;SDS011;11935;50.878;4.392;2023-03-23T06:05:44;8.43;;;1.20;;
23517;SDS011;11935;50.878;4.392;2023-03-23T06:08:10;5.97;;;1.27;;
23517;SDS011;11935;50.878;4.392;2023-03-23T06:10:36;7.97;;;1.63;;
23517;SDS011;11935;50.878;4.392;2023-03-23T06:13:03;3.58;;;1.23;;
23517;SDS011;11935;50.878;4.392;2023-03-23T06:15:30;5.10;;;1.33;;
23517;SDS011;11935;50.878;4.392;2023-03-23T06:18:00;5.45;;;1.55;;
23517;SDS011;11935;50.878;4.392;2023-03-23T06:20:26;4.35;;;1.35;;
23517;SDS011;11935;50.878;4.392;2023-03-23T06:22:52;5.40;;;1.83;;
23517;SDS011;11935;50.878;4.392;2023-03-23T06:25:18;3.47;;;1.50;;
23517;SDS011;11935;50.878;4.392;2023-03-23T06:27:45;3.95;;;1.40;;
23517;SDS011;11935;50.878;4.392;2023-03-23T06:30:11;6.13;;;1.20;;
23517;SDS011;11935;50.878;4.392;2023-03-23T06:32:40;7.68;;;1.48;;
23517;SDS011;11935;50.878;4.392;2023-03-23T06:35:06;3.75;;;0.98;;
23517;SDS011;11935;50.878;4.392;2023-03-23T06:37:35;6.72;;;2.40;;
23517;SDS011;11935;50.878;4.392;2023-03-23T06:40:01;6.43;;;1.55;;
23517;SDS011;11935;50.878;4.392;2023-03-23T06:42:29;7.32;;;1.20;;
23517;SDS011;11935;50.878;4.392;2023-03-23T06:44:55;7.05;;;1.30;;
23517;SDS011;11935;50.878;4.392;2023-03-23T06:47:22;11.82;;;1.67;;
23517;SDS011;11935;50.878;4.392;2023-03-23T06:49:49;11.07;;;1.40;;
23517;SDS011;11935;50.878;4.392;2023-03-23T06:52:15;8.57;;;1.40;;
23517;SDS011;11935;50.878;4.392;2023-03-23T06:54:42;7.70;;;1.35;;
23517;SDS011;11935;50.878;4.392;2023-03-23T06:57:08;3.58;;;1.23;;
23517;SDS011;11935;50.878;4.392;2023-03-23T06:59:35;8.73;;;1.50;;
23517;SDS011;11935;50.878;4.392;2023-03-23T07:02:01;4.40;;;1.08;;
23517;SDS011;11935;50.878;4.392;2023-03-23T07:04:27;3.83;;;0.73;;
23517;SDS011;11935;50.878;4.392;2023-03-23T07:06:54;4.32;;;0.68;;
23517;SDS011;11935;50.878;4.392;2023-03-23T07:09:21;2.42;;;0.68;;
23517;SDS011;11935;50.878;4.392;2023-03-23T07:11:47;2.47;;;0.50;;
23517;SDS011;11935;50.878;4.392;2023-03-23T07:14:16;2.70;;;0.65;;
23517;SDS011;11935;50.878;4.392;2023-03-23T07:16:42;3.40;;;0.75;;
23517;SDS011;11935;50.878;4.392;2023-03-23T07:19:08;2.92;;;0.50;;
23517;SDS011;11935;50.878;4.392;2023-03-23T07:21:35;4.30;;;0.50;;
23517;SDS011;11935;50.878;4.392;2023-03-23T07:24:01;4.32;;;0.90;;
23517;SDS011;11935;50.878;4.392;2023-03-23T07:26:27;5.65;;;0.77;;
23517;SDS011;11935;50.878;4.392;2023-03-23T07:28:54;3.95;;;0.75;;
23517;SDS011;11935;50.878;4.392;2023-03-23T07:31:20;2.85;;;0.80;;
23517;SDS011;11935;50.878;4.392;2023-03-23T07:33:47;3.03;;;1.00;;
23517;SDS011;11935;50.878;4.392;2023-03-23T07:36:13;6.28;;;1.00;;
23517;SDS011;11935;50.878;4.392;2023-03-23T07:38:39;6.63;;;1.10;;
23517;SDS011;11935;50.878;4.392;2023-03-23T07:41:05;5.22;;;1.15;;
23517;SDS011;11935;50.878;4.392;2023-03-23T07:43:32;6.38;;;1.38;;
23517;SDS011;11935;50.878;4.392;2023-03-23T07:45:58;3.58;;;1.20;;
23517;SDS011;11935;50.878;4.392;2023-03-23T07:48:24;11.05;;;1.50;;
23517;SDS011;11935;50.878;4.392;2023-03-23T07:50:50;12.55;;;1.55;;
23517;SDS011;11935;50.878;4.392;2023-03-23T07:53:16;9.02;;;1.30;;
23517;SDS011;11935;50.878;4.392;2023-03-23T07:55:42;10.40;;;2.05;;
23517;SDS011;11935;50.878;4.392;2023-03-23T07:58:08;23.05;;;3.10;;
23517;SDS011;11935;50.878;4.392;2023-03-23T08:00:35;16.90;;;1.88;;
23517;SDS011;11935;50.878;4.392;2023-03-23T08:03:01;3.08;;;1.10;;
23517;SDS011;11935;50.878;4.392;2023-03-23T08:05:31;4.32;;;1.38;;
23517;SDS011;11935;50.878;4.392;2023-03-23T08:07:57;5.40;;;1.33;;
23517;SDS011;11935;50.878;4.392;2023-03-23T08:10:24;6.45;;;1.45;;
23517;SDS011;11935;50.878;4.392;2023-03-23T08:12:52;4.32;;;1.20;;
23517;SDS011;11935;50.878;4.392;2023-03-23T08:15:19;4.57;;;0.80;;
23517;SDS011;11935;50.878;4.392;2023-03-23T08:17:46;5.97;;;1.07;;
23517;SDS011;11935;50.878;4.392;2023-03-23T08:20:12;3.72;;;1.10;;
23517;SDS011;11935;50.878;4.392;2023-03-23T08:22:42;7.40;;;0.70;;
23517;SDS011;11935;50.878;4.392;2023-03-23T08:25:10;7.00;;;1.10;;
23517;SDS011;11935;50.878;4.392;2023-03-23T08:27:36;3.92;;;0.98;;
23517;SDS011;11935;50.878;4.392;2023-03-23T08:30:05;12.25;;;1.65;;
23517;SDS011;11935;50.878;4.392;2023-03-23T08:32:32;12.50;;;1.13;;
23517;SDS011;11935;50.878;4.392;2023-03-23T08:34:59;7.28;;;1.25;;
23517;SDS011;11935;50.878;4.392;2023-03-23T08:37:25;8.55;;;0.93;;
23517;SDS011;11935;50.878;4.392;2023-03-23T08:39:55;4.88;;;1.08;;
23517;SDS011;11935;50.878;4.392;2023-03-23T08:42:23;6.88;;;1.10;;
23517;SDS011;11935;50.878;4.392;2023-03-23T08:44:49;9.63;;;0.77;;
23517;SDS011;11935;50.878;4.392;2023-03-23T08:47:15;10.75;;;1.52;;
23517;SDS011;11935;50.878;4.392;2023-03-23T08:49:43;7.55;;;1.08;;
23517;SDS011;11935;50.878;4.392;2023-03-23T08:52:10;4.10;;;1.10;;
23517;SDS011;11935;50.878;4.392;2023-03-23T08:54:36;4.63;;;0.90;;
23517;SDS011;11935;50.878;4.392;2023-03-23T08:57:03;7.13;;;1.27;;
23517;SDS011;11935;50.878;4.392;2023-03-23T08:59:29;12.65;;;1.45;;
23517;SDS011;11935;50.878;4.392;2023-03-23T09:01:55;6.28;;;1.50;;
23517;SDS011;11935;50.878;4.392;2023-03-23T09:04:21;10.65;;;1.30;;
23517;SDS011;11935;50.878;4.392;2023-03-23T09:06:47;5.60;;;1.20;;
23517;SDS011;11935;50.878;4.392;2023-03-23T09:09:13;8.27;;;1.23;;
23517;SDS011;11935;50.878;4.392;2023-03-23T09:11:40;8.18;;;2.08;;
23517;SDS011;11935;50.878;4.392;2023-03-23T09:14:06;11.68;;;2.55;;
23517;SDS011;11935;50.878;4.392;2023-03-23T09:16:33;5.63;;;2.05;;
23517;SDS011;11935;50.878;4.392;2023-03-23T09:19:00;7.82;;;1.25;;
23517;SDS011;11935;50.878;4.392;2023-03-23T09:21:26;5.00;;;1.10;;
23517;SDS011;11935;50.878;4.392;2023-03-23T09:23:53;5.80;;;1.00;;
23517;SDS011;11935;50.878;4.392;2023-03-23T09:26:23;10.02;;;1.67;;
23517;SDS011;11935;50.878;4.392;2023-03-23T09:28:50;5.00;;;2.40;;
23517;SDS011;11935;50.878;4.392;2023-03-23T09:31:16;5.43;;;1.42;;
23517;SDS011;11935;50.878;4.392;2023-03-23T09:33:46;5.80;;;1.17;;
23517;SDS011;11935;50.878;4.392;2023-03-23T09:36:16;2.45;;;0.93;;
23517;SDS011;11935;50.878;4.392;2023-03-23T09:38:43;2.85;;;1.20;;
23517;SDS011;11935;50.878;4.392;2023-03-23T09:44:04;8.73;;;1.20;;
23517;SDS011;11935;50.878;4.392;2023-03-23T09:49:19;7.05;;;1.15;;
23517;SDS011;11935;50.878;4.392;2023-03-23T09:54:22;6.55;;;1.40;;
23517;SDS011;11935;50.878;4.392;2023-03-23T09:56:49;2.15;;;0.80;;
23517;SDS011;11935;50.878;4.392;2023-03-23T09:59:30;9.80;;;1.13;;
23517;SDS011;11935;50.878;4.392;2023-03-23T10:01:58;6.78;;;1.55;;
23517;SDS011;11935;50.878;4.392;2023-03-23T10:07:05;4.72;;;1.00;;
23517;SDS011;11935;50.878;4.392;2023-03-23T10:09:32;6.10;;;1.38;;
23517;SDS011;11935;50.878;4.392;2023-03-23T10:19:56;11.98;;;1.38;;
23517;SDS011;11935;50.878;4.392;2023-03-23T10:22:28;16.55;;;1.95;;
23517;SDS011;11935;50.878;4.392;2023-03-23T10:27:58;5.70;;;1.60;;
23517;SDS011;11935;50.878;4.392;2023-03-23T10:30:32;5.55;;;1.40;;
23517;SDS011;11935;50.878;4.392;2023-03-23T10:33:10;11.15;;;1.63;;
23517;SDS011;11935;50.878;4.392;2023-03-23T10:35:48;6.07;;;1.25;;
23517;SDS011;11935;50.878;4.392;2023-03-23T10:38:23;5.95;;;1.73;;
23517;SDS011;11935;50.878;4.392;2023-03-23T10:40:54;4.10;;;1.40;;
23517;SDS011;11935;50.878;4.392;2023-03-23T10:43:22;7.97;;;2.03;;
23517;SDS011;11935;50.878;4.392;2023-03-23T10:46:00;6.20;;;1.95;;
23517;SDS011;11935;50.878;4.392;2023-03-23T10:48:29;11.93;;;2.42;;
23517;SDS011;11935;50.878;4.392;2023-03-23T10:50:58;8.35;;;1.77;;
23517;SDS011;11935;50.878;4.392;2023-03-23T10:53:28;10.05;;;1.88;;
23517;SDS011;11935;50.878;4.392;2023-03-23T10:56:01;21.27;;;2.28;;
23517;SDS011;11935;50.878;4.392;2023-03-23T10:58:32;7.93;;;1.77;;
23517;SDS011;11935;50.878;4.392;2023-03-23T11:00:59;10.57;;;1.80;;
23517;SDS011;11935;50.878;4.392;2023-03-23T11:05:55;10.05;;;2.17;;
23517;SDS011;11935;50.878;4.392;2023-03-23T11:08:27;6.07;;;1.50;;
23517;SDS011;11935;50.878;4.392;2023-03-23T11:11:10;8.40;;;2.20;;
23517;SDS011;11935;50.878;4.392;2023-03-23T11:13:39;3.92;;;1.52;;
23517;SDS011;11935;50.878;4.392;2023-03-23T11:16:07;9.57;;;1.80;;
23517;SDS011;11935;50.878;4.392;2023-03-23T11:18:35;5.45;;;1.80;;
23517;SDS011;11935;50.878;4.392;2023-03-23T11:23:38;4.97;;;1.25;;
23517;SDS011;11935;50.878;4.392;2023-03-23T11:28:38;12.00;;;1.73;;
23517;SDS011;11935;50.878;4.392;2023-03-23T11:31:08;12.95;;;2.03;;
23517;SDS011;11935;50.878;4.392;2023-03-23T11:33:35;8.90;;;3.35;;
23517;SDS011;11935;50.878;4.392;2023-03-23T11:36:03;11.52;;;2.45;;
23517;SDS011;11935;50.878;4.392;2023-03-23T11:38:31;9.53;;;2.00;;
23517;SDS011;11935;50.878;4.392;2023-03-23T11:40:58;15.00;;;2.53;;
23517;SDS011;11935;50.878;4.392;2023-03-23T11:43:25;10.27;;;2.00;;
23517;SDS011;11935;50.878;4.392;2023-03-23T11:51:12;6.13;;;1.35;;
23517;SDS011;11935;50.878;4.392;2023-03-23T11:53:55;7.03;;;1.60;;
23517;SDS011;11935;50.878;4.392;2023-03-23T11:58:50;12.85;;;1.52;;
23517;SDS011;11935;50.878;4.392;2023-03-23T12:17:13;10.52;;;1.10;;
23517;SDS011;11935;50.878;4.392;2023-03-23T12:22:29;10.85;;;1.63;;
23517;SDS011;11935;50.878;4.392;2023-03-23T12:25:12;4.63;;;1.05;;
23517;SDS011;11935;50.878;4.392;2023-03-23T12:36:01;3.17;;;0.77;;
23517;SDS011;11935;50.878;4.392;2023-03-23T12:39:08;9.85;;;1.20;;
23517;SDS011;11935;50.878;4.392;2023-03-23T12:44:11;7.75;;;1.65;;
23517;SDS011;11935;50.878;4.392;2023-03-23T12:49:27;10.45;;;1.63;;
23517;SDS011;11935;50.878;4.392;2023-03-23T12:51:59;6.85;;;1.10;;
23517;SDS011;11935;50.878;4.392;2023-03-23T12:54:48;7.40;;;1.20;;
23517;SDS011;11935;50.878;4.392;2023-03-23T12:59:48;6.25;;;1.67;;
23517;SDS011;11935;50.878;4.392;2023-03-23T13:02:26;9.57;;;2.03;;
23517;SDS011;11935;50.878;4.392;2023-03-23T13:05:03;4.85;;;1.10;;
23517;SDS011;11935;50.878;4.392;2023-03-23T13:07:39;13.85;;;1.98;;
23517;SDS011;11935;50.878;4.392;2023-03-23T13:12:34;10.40;;;1.95;;
23517;SDS011;11935;50.878;4.392;2023-03-23T13:25:18;6.95;;;2.00;;
23517;SDS011;11935;50.878;4.392;2023-03-23T13:27:55;8.32;;;1.58;;
23517;SDS011;11935;50.878;4.392;2023-03-23T13:30:22;9.07;;;1.48;;
23517;SDS011;11935;50.878;4.392;2023-03-23T13:32:49;8.77;;;1.67;;
23517;SDS011;11935;50.878;4.392;2023-03-23T13:35:16;8.98;;;1.85;;
23517;SDS011;11935;50.878;4.392;2023-03-23T13:37:46;7.55;;;1.48;;
23517;SDS011;11935;50.878;4.392;2023-03-23T13:40:26;6.15;;;1.48;;
23517;SDS011;11935;50.878;4.392;2023-03-23T13:42:56;6.38;;;1.42;;
23517;SDS011;11935;50.878;4.392;2023-03-23T13:45:24;9.20;;;1.75;;
23517;SDS011;11935;50.878;4.392;2023-03-23T13:48:01;5.63;;;1.60;;
23517;SDS011;11935;50.878;4.392;2023-03-23T13:50:28;4.75;;;1.25;;
23517;SDS011;11935;50.878;4.392;2023-03-23T13:52:59;7.05;;;1.35;;
23517;SDS011;11935;50.878;4.392;2023-03-23T13:58:08;6.60;;;1.67;;
23517;SDS011;11935;50.878;4.392;2023-03-23T14:03:02;5.47;;;1.20;;
23517;SDS011;11935;50.878;4.392;2023-03-23T14:05:30;3.95;;;1.15;;
23517;SDS011;11935;50.878;4.392;2023-03-23T14:10:34;4.22;;;1.13;;
23517;SDS011;11935;50.878;4.392;2023-03-23T14:13:02;7.22;;;1.30;;
23517;SDS011;11935;50.878;4.392;2023-03-23T14:15:29;4.43;;;1.23;;
23517;SDS011;11935;50.878;4.392;2023-03-23T14:17:56;7.60;;;1.65;;
23517;SDS011;11935;50.878;4.392;2023-03-23T14:20:29;6.13;;;2.03;;
23517;SDS011;11935;50.878;4.392;2023-03-23T14:22:58;6.22;;;1.48;;
23517;SDS011;11935;50.878;4.392;2023-03-23T14:25:26;9.77;;;1.50;;
23517;SDS011;11935;50.878;4.392;2023-03-23T14:27:53;6.78;;;1.67;;
23517;SDS011;11935;50.878;4.392;2023-03-23T14:30:20;6.57;;;1.77;;
23517;SDS011;11935;50.878;4.392;2023-03-23T14:32:47;15.73;;;1.65;;
23517;SDS011;11935;50.878;4.392;2023-03-23T14:37:43;8.82;;;2.08;;
23517;SDS011;11935;50.878;4.392;2023-03-23T14:40:12;9.27;;;1.90;;
23517;SDS011;11935;50.878;4.392;2023-03-23T14:42:39;10.10;;;2.13;;
23517;SDS011;11935;50.878;4.392;2023-03-23T14:45:06;7.38;;;1.45;;
23517;SDS011;11935;50.878;4.392;2023-03-23T14:47:37;14.68;;;2.00;;
23517;SDS011;11935;50.878;4.392;2023-03-23T14:50:05;4.00;;;1.30;;
23517;SDS011;11935;50.878;4.392;2023-03-23T14:52:36;3.65;;;0.77;;
23517;SDS011;11935;50.878;4.392;2023-03-23T14:55:12;8.18;;;1.95;;
23517;SDS011;11935;50.878;4.392;2023-03-23T14:57:41;8.88;;;2.15;;
23517;SDS011;11935;50.878;4.392;2023-03-23T15:00:28;7.35;;;1.90;;
23517;SDS011;11935;50.878;4.392;2023-03-23T15:02:56;7.72;;;1.13;;
23517;SDS011;11935;50.878;4.392;2023-03-23T15:05:27;5.80;;;1.60;;
23517;SDS011;11935;50.878;4.392;2023-03-23T15:07:55;5.65;;;1.73;;
23517;SDS011;11935;50.878;4.392;2023-03-23T15:10:22;5.72;;;1.30;;
23517;SDS011;11935;50.878;4.392;2023-03-23T15:12:49;7.18;;;1.20;;
23517;SDS011;11935;50.878;4.392;2023-03-23T15:15:35;5.80;;;1.30;;
23517;SDS011;11935;50.878;4.392;2023-03-23T15:18:02;9.75;;;1.90;;
23517;SDS011;11935;50.878;4.392;2023-03-23T15:20:29;6.28;;;1.58;;
23517;SDS011;11935;50.878;4.392;2023-03-23T15:22:56;6.47;;;1.63;;
23517;SDS011;11935;50.878;4.392;2023-03-23T15:27:53;10.68;;;2.70;;
23517;SDS011;11935;50.878;4.392;2023-03-23T15:32:52;14.50;;;2.88;;
23517;SDS011;11935;50.878;4.392;2023-03-23T15:35:22;12.00;;;2.90;;
23517;SDS011;11935;50.878;4.392;2023-03-23T15:37:53;13.48;;;3.85;;
23517;SDS011;11935;50.878;4.392;2023-03-23T15:40:24;12.43;;;2.72;;
23517;SDS011;11935;50.878;4.392;2023-03-23T15:43:05;9.30;;;2.10;;
23517;SDS011;11935;50.878;4.392;2023-03-23T15:45:31;7.63;;;2.70;;
23517;SDS011;11935;50.878;4.392;2023-03-23T15:48:04;5.18;;;1.98;;
23517;SDS011;11935;50.878;4.392;2023-03-23T15:52:56;6.93;;;1.58;;
23517;SDS011;11935;50.878;4.392;2023-03-23T15:55:27;7.70;;;1.98;;
23517;SDS011;11935;50.878;4.392;2023-03-23T15:57:54;12.05;;;2.75;;
23517;SDS011;11935;50.878;4.392;2023-03-23T16:00:21;7.57;;;1.85;;
23517;SDS011;11935;50.878;4.392;2023-03-23T16:02:48;6.13;;;1.70;;
23517;SDS011;11935;50.878;4.392;2023-03-23T16:05:15;8.32;;;2.20;;
23517;SDS011;11935;50.878;4.392;2023-03-23T16:07:41;8.68;;;1.67;;
23517;SDS011;11935;50.878;4.392;2023-03-23T16:10:13;8.27;;;1.85;;
23517;SDS011;11935;50.878;4.392;2023-03-23T16:12:40;10.00;;;2.20;;
23517;SDS011;11935;50.878;4.392;2023-03-23T16:15:06;3.53;;;1.20;;
23517;SDS011;11935;50.878;4.392;2023-03-23T16:17:33;8.55;;;2.47;;
23517;SDS011;11935;50.878;4.392;2023-03-23T16:19:59;11.55;;;1.83;;
23517;SDS011;11935;50.878;4.392;2023-03-23T16:22:27;6.45;;;1.17;;
23517;SDS011;11935;50.878;4.392;2023-03-23T16:24:53;12.05;;;1.70;;
23517;SDS011;11935;50.878;4.392;2023-03-23T16:27:19;8.90;;;1.67;;
23517;SDS011;11935;50.878;4.392;2023-03-23T16:29:47;10.77;;;1.50;;
23517;SDS011;11935;50.878;4.392;2023-03-23T16:32:13;7.38;;;1.67;;
23517;SDS011;11935;50.878;4.392;2023-03-23T16:34:39;9.55;;;2.20;;
23517;SDS011;11935;50.878;4.392;2023-03-23T16:37:05;3.67;;;1.67;;
23517;SDS011;11935;50.878;4.392;2023-03-23T16:39:32;7.93;;;2.38;;
23517;SDS011;11935;50.878;4.392;2023-03-23T16:41:58;5.25;;;2.05;;
23517;SDS011;11935;50.878;4.392;2023-03-23T16:44:24;6.55;;;1.80;;
23517;SDS011;11935;50.878;4.392;2023-03-23T16:46:50;10.73;;;2.30;;
23517;SDS011;11935;50.878;4.392;2023-03-23T16:49:16;10.20;;;1.70;;
23517;SDS011;11935;50.878;4.392;2023-03-23T16:51:42;6.43;;;1.70;;
23517;SDS011;11935;50.878;4.392;2023-03-23T16:54:09;9.13;;;1.98;;
23517;SDS011;11935;50.878;4.392;2023-03-23T16:56:35;8.13;;;1.75;;
23517;SDS011;11935;50.878;4.392;2023-03-23T16:59:01;8.52;;;2.17;;
23517;SDS011;11935;50.878;4.392;2023-03-23T17:01:27;9.15;;;1.98;;